createdAt,value
2022-08-26T00:01:59.271Z,69.34
2022-08-26T00:05:04.071Z,69.37
2022-08-26T00:08:08.453Z,69.39
2022-08-26T00:11:15.967Z,69.55
2022-08-26T00:14:30.880Z,69.44
2022-08-26T00:17:34.572Z,69.74
2022-08-26T00:20:37.578Z,69.92
2022-08-26T00:23:41.619Z,70.06
2022-08-26T00:26:44.773Z,70.03
2022-08-26T00:29:47.668Z,69.94
2022-08-26T00:32:51.245Z,70.07
2022-08-26T00:35:55.377Z,70.19
2022-08-26T00:38:58.837Z,70.07
2022-08-26T00:42:01.967Z,70.06
2022-08-26T00:45:11.630Z,70.09
2022-08-26T00:48:17.949Z,70.00
2022-08-26T00:51:29.806Z,69.94
2022-08-26T00:54:42.261Z,69.81
2022-08-26T00:57:47.776Z,69.67
2022-08-26T01:00:52.470Z,69.65
2022-08-26T01:03:56.141Z,69.59
2022-08-26T01:07:00.011Z,69.43
2022-08-26T01:10:08.385Z,69.43
2022-08-26T01:13:13.193Z,69.36
2022-08-26T01:16:17.106Z,69.32
2022-08-26T01:19:32.401Z,69.29
2022-08-26T01:22:55.431Z,69.19
2022-08-26T01:26:03.129Z,69.17
2022-08-26T01:29:23.842Z,69.13
2022-08-26T01:32:28.403Z,69.12
2022-08-26T01:35:31.340Z,69.17
2022-08-26T01:38:34.974Z,69.10
2022-08-26T01:41:40.643Z,69.06
2022-08-26T01:44:52.269Z,69.00
2022-08-26T01:47:58.580Z,69.04
2022-08-26T01:51:05.737Z,68.97
2022-08-26T01:54:12.091Z,68.90
2022-08-26T01:57:21.980Z,68.85
2022-08-26T02:00:26.761Z,68.86
2022-08-26T02:03:30.984Z,68.91
2022-08-26T02:06:38.733Z,68.91
2022-08-26T02:09:43.512Z,68.93
2022-08-26T02:12:46.540Z,68.82
2022-08-26T02:15:49.870Z,68.89
2022-08-26T02:18:53.889Z,69.10
2022-08-26T02:22:07.072Z,69.03
2022-08-26T02:25:28.175Z,69.32
2022-08-26T02:28:47.112Z,69.35
2022-08-26T02:31:51.938Z,68.97
2022-08-26T02:34:54.904Z,69.14
2022-08-26T02:37:58.314Z,69.03
2022-08-26T02:41:02.129Z,69.19
2022-08-26T02:44:07.208Z,69.27
2022-08-26T02:47:13.247Z,69.12
2022-08-26T02:50:16.211Z,68.98
2022-08-26T02:53:25.087Z,68.79
2022-08-26T02:56:29.406Z,68.63
2022-08-26T02:59:33.459Z,68.81
2022-08-26T03:02:36.599Z,68.74
2022-08-26T03:05:40.179Z,68.63
2022-08-26T03:08:43.241Z,68.51
2022-08-26T03:11:47.283Z,68.38
2022-08-26T03:14:50.238Z,68.34
2022-08-26T03:17:54.646Z,68.29
2022-08-26T03:21:17.599Z,68.37
2022-08-26T03:24:21.279Z,68.13
2022-08-26T03:27:24.313Z,68.50
2022-08-26T03:30:39.961Z,68.83
2022-08-26T03:33:48.541Z,69.09
2022-08-26T03:36:57.679Z,69.08
2022-08-26T03:40:01.721Z,68.74
2022-08-26T03:43:06.764Z,68.58
2022-08-26T03:46:20.649Z,68.81
2022-08-26T03:49:24.230Z,68.93
2022-08-26T03:52:27.138Z,69.21
2022-08-26T03:55:32.513Z,69.04
2022-08-26T03:58:37.362Z,69.12
2022-08-26T04:01:40.911Z,69.14
2022-08-26T04:04:43.864Z,69.39
2022-08-26T04:07:48.521Z,69.43
2022-08-26T04:10:51.604Z,69.47
2022-08-26T04:13:54.580Z,69.49
2022-08-26T04:16:57.492Z,69.49
2022-08-26T04:20:00.688Z,69.22
2022-08-26T04:23:04.461Z,69.03
2022-08-26T04:26:08.760Z,69.16
2022-08-26T04:29:18.961Z,69.38
2022-08-26T04:32:22.224Z,69.63
2022-08-26T04:35:26.249Z,69.59
2022-08-26T04:38:30.390Z,69.90
2022-08-26T04:41:33.686Z,69.74
2022-08-26T04:44:37.709Z,69.26
2022-08-26T04:47:40.623Z,69.01
2022-08-26T04:50:43.715Z,68.91
2022-08-26T04:53:47.025Z,68.79
2022-08-26T04:56:50.811Z,68.49
2022-08-26T04:59:54.207Z,68.28
2022-08-26T05:02:57.502Z,68.25
2022-08-26T05:06:05.523Z,68.09
2022-08-26T05:09:08.577Z,68.29
2022-08-26T05:12:11.604Z,68.52
2022-08-26T05:15:14.566Z,68.63
2022-08-26T05:18:21.349Z,68.74
2022-08-26T05:21:29.164Z,69.13
2022-08-26T05:24:32.108Z,68.65
2022-08-26T05:27:35.064Z,69.27
2022-08-26T05:30:38.870Z,68.86
2022-08-26T05:33:43.471Z,68.37
2022-08-26T05:36:46.684Z,68.12
2022-08-26T05:39:51.155Z,68.06
2022-08-26T05:42:55.124Z,67.66
2022-08-26T05:46:06.625Z,68.14
2022-08-26T05:49:12.651Z,68.25
2022-08-26T05:52:15.957Z,68.34
2022-08-26T05:55:20.321Z,68.77
2022-08-26T05:58:24.193Z,68.94
2022-08-26T06:01:30.101Z,68.95
2022-08-26T06:04:33.084Z,68.94
2022-08-26T06:07:54.841Z,68.88
2022-08-26T06:11:02.474Z,68.85
2022-08-26T06:14:07.905Z,68.55
2022-08-26T06:17:11.239Z,67.73
2022-08-26T06:20:16.159Z,67.13
2022-08-26T06:23:39.273Z,67.12
2022-08-26T06:26:50.377Z,66.96
2022-08-26T06:29:54.836Z,66.95
2022-08-26T06:32:57.797Z,66.33
2022-08-26T06:36:01.560Z,66.24
2022-08-26T06:39:10.358Z,65.95
2022-08-26T06:42:13.523Z,66.00
2022-08-26T06:45:17.859Z,66.64
2022-08-26T06:48:21.623Z,66.58
2022-08-26T06:51:28.329Z,65.14
2022-08-26T06:54:31.895Z,65.05
2022-08-26T06:57:37.677Z,65.38
2022-08-26T07:00:47.173Z,65.17
2022-08-26T07:03:52.544Z,65.03
2022-08-26T07:06:57.674Z,64.74
2022-08-26T07:10:00.647Z,64.43
2022-08-26T07:13:05.834Z,64.85
2022-08-26T07:16:13.613Z,65.04
2022-08-26T07:19:30.209Z,64.44
2022-08-26T07:22:37.218Z,64.19
2022-08-26T07:25:42.027Z,64.87
2022-08-26T07:28:46.579Z,63.52
2022-08-26T07:31:49.762Z,63.32
2022-08-26T07:34:52.897Z,63.27
2022-08-26T07:37:57.174Z,62.75
2022-08-26T07:41:01.902Z,62.17
2022-08-26T07:44:05.338Z,62.80
2022-08-26T07:47:24.727Z,61.22
2022-08-26T07:50:49.497Z,59.62
2022-08-26T07:53:54.359Z,59.09
2022-08-26T07:56:58.251Z,59.17
2022-08-26T08:00:02.289Z,59.42
2022-08-26T08:03:15.262Z,58.98
2022-08-26T08:06:19.833Z,59.04
2022-08-26T08:09:24.677Z,58.02
2022-08-26T08:12:27.768Z,58.13
2022-08-26T08:15:33.157Z,57.71
2022-08-26T08:18:38.565Z,56.88
2022-08-26T08:21:44.019Z,56.93
2022-08-26T08:24:49.975Z,56.69
2022-08-26T08:27:55.928Z,55.59
2022-08-26T08:31:00.778Z,55.56
2022-08-26T08:34:04.322Z,56.64
2022-08-26T08:37:10.654Z,55.88
2022-08-26T08:40:19.004Z,56.63
2022-08-26T08:43:37.698Z,55.37
2022-08-26T08:46:42.691Z,55.85
2022-08-26T08:49:46.655Z,56.25
2022-08-26T08:53:02.462Z,55.98
2022-08-26T08:56:08.483Z,55.86
2022-08-26T08:59:20.416Z,56.08
2022-08-26T09:02:32.198Z,56.13
2022-08-26T09:05:45.440Z,54.27
2022-08-26T09:08:52.554Z,55.34
2022-08-26T09:11:56.565Z,54.45
2022-08-26T09:15:30.200Z,53.49
2022-08-26T09:19:08.243Z,53.71
2022-08-26T09:22:28.313Z,51.97
2022-08-26T09:25:31.338Z,51.97
2022-08-26T09:28:34.271Z,50.61
2022-08-26T09:31:42.297Z,51.79
2022-08-26T09:34:57.342Z,51.85
2022-08-26T09:38:00.530Z,51.27
2022-08-26T09:41:08.373Z,49.67
2022-08-26T09:44:14.740Z,48.80
2022-08-26T09:47:32.490Z,48.74
2022-08-26T09:50:58.074Z,48.82
2022-08-26T09:54:03.033Z,47.91
2022-08-26T09:57:24.258Z,47.42
2022-08-26T10:00:35.052Z,48.61
2022-08-26T10:03:43.064Z,46.69
2022-08-26T10:07:01.822Z,47.36
2022-08-26T10:10:09.344Z,47.36
2022-08-26T10:13:17.737Z,45.57
2022-08-26T10:16:46.293Z,44.42
2022-08-26T10:19:56.470Z,43.70
2022-08-26T10:23:16.391Z,44.11
2022-08-26T10:26:46.118Z,42.93
2022-08-26T10:30:03.989Z,43.39
2022-08-26T10:33:10.664Z,43.31
2022-08-26T10:36:52.365Z,44.38
2022-08-26T10:40:13.280Z,44.04
2022-08-26T10:43:25.651Z,43.31
2022-08-26T10:46:39.791Z,43.74
2022-08-26T10:49:47.212Z,42.02
2022-08-26T10:53:00.569Z,42.77
2022-08-26T10:56:26.059Z,41.65
2022-08-26T11:00:24.494Z,40.42
2022-08-26T11:03:57.854Z,41.18
2022-08-26T11:07:28.643Z,42.16
2022-08-26T11:10:54.941Z,40.42
2022-08-26T11:14:18.018Z,40.95
2022-08-26T11:17:46.981Z,41.60
2022-08-26T11:20:49.954Z,41.55
2022-08-26T11:23:53.968Z,40.75
2022-08-26T11:26:57.480Z,39.54
2022-08-26T11:30:06.757Z,40.07
2022-08-26T11:33:31.424Z,38.92
2022-08-26T11:36:35.181Z,38.58
2022-08-26T11:39:55.323Z,37.51
2022-08-26T11:43:07.064Z,36.66
2022-08-26T11:46:13.019Z,36.42
2022-08-26T11:49:17.419Z,37.18
2022-08-26T11:52:22.281Z,36.30
2022-08-26T11:55:25.429Z,37.52
2022-08-26T11:58:30.130Z,38.00
2022-08-26T12:01:36.314Z,38.06
2022-08-26T12:04:43.396Z,38.49
2022-08-26T12:07:50.902Z,37.49
2022-08-26T12:11:12.139Z,37.04
2022-08-26T12:14:24.631Z,36.58
2022-08-26T12:17:28.359Z,36.76
2022-08-26T12:20:48.318Z,37.02
2022-08-26T12:23:54.773Z,37.46
2022-08-26T12:27:23.749Z,36.30
2022-08-26T12:30:26.777Z,38.62
2022-08-26T12:33:31.071Z,37.01
2022-08-26T12:36:39.351Z,35.99
2022-08-26T12:39:44.852Z,34.94
2022-08-26T12:42:47.859Z,35.47
2022-08-26T12:45:58.206Z,36.70
2022-08-26T12:49:01.920Z,35.43
2022-08-26T12:52:29.979Z,36.25
2022-08-26T12:55:33.047Z,37.44
2022-08-26T12:58:39.934Z,35.47
2022-08-26T13:01:44.643Z,36.40
2022-08-26T13:04:48.821Z,36.67
2022-08-26T13:08:12.386Z,35.89
2022-08-26T13:11:20.804Z,35.03
2022-08-26T13:14:24.797Z,37.17
2022-08-26T13:17:29.808Z,35.87
2022-08-26T13:20:33.023Z,36.55
2022-08-26T13:23:40.619Z,35.99
2022-08-26T13:26:49.606Z,35.44
2022-08-26T13:29:54.033Z,36.60
2022-08-26T13:33:00.622Z,36.26
2022-08-26T13:36:05.882Z,37.70
2022-08-26T13:39:08.909Z,36.89
2022-08-26T13:42:11.951Z,37.70
2022-08-26T13:45:15.208Z,36.63
2022-08-26T13:48:22.857Z,37.23
2022-08-26T13:51:27.812Z,37.91
2022-08-26T13:54:38.496Z,38.61
2022-08-26T13:57:44.760Z,37.12
2022-08-26T14:00:48.243Z,37.21
2022-08-26T14:03:51.882Z,37.46
2022-08-26T14:06:55.854Z,36.84
2022-08-26T14:10:02.993Z,37.43
2022-08-26T14:13:06.391Z,37.64
2022-08-26T14:16:22.916Z,37.54
2022-08-26T14:19:25.995Z,37.67
2022-08-26T14:22:29.092Z,37.20
2022-08-26T14:25:33.704Z,37.87
2022-08-26T14:28:37.945Z,37.47
2022-08-26T14:31:41.081Z,37.05
2022-08-26T14:34:44.086Z,37.88
2022-08-26T14:37:47.399Z,37.90
2022-08-26T14:40:50.454Z,38.49
2022-08-26T14:44:00.153Z,37.89
2022-08-26T14:47:09.849Z,39.18
2022-08-26T14:50:15.169Z,39.15
2022-08-26T14:53:36.829Z,39.48
2022-08-26T14:56:42.760Z,39.58
2022-08-26T14:59:50.104Z,39.01
2022-08-26T15:02:53.390Z,39.48
2022-08-26T15:05:58.413Z,39.11
2022-08-26T15:09:04.590Z,39.76
2022-08-26T15:12:07.699Z,39.85
2022-08-26T15:15:17.362Z,39.82
2022-08-26T15:18:20.747Z,40.49
2022-08-26T15:21:25.212Z,40.64
2022-08-26T15:24:29.116Z,40.98
2022-08-26T15:27:32.614Z,41.34
2022-08-26T15:30:35.778Z,42.48
2022-08-26T15:33:39.448Z,43.43
2022-08-26T15:36:44.815Z,43.85
2022-08-26T15:39:47.994Z,43.80
2022-08-26T15:42:57.557Z,44.16
2022-08-26T15:46:05.122Z,44.82
2022-08-26T15:49:08.668Z,45.37
2022-08-26T15:52:21.253Z,44.85
2022-08-26T15:55:26.665Z,45.06
2022-08-26T15:58:32.330Z,44.95
2022-08-26T16:01:36.396Z,44.93
2022-08-26T16:04:39.373Z,45.10
2022-08-26T16:07:42.323Z,44.90
2022-08-26T16:10:50.289Z,44.71
2022-08-26T16:13:54.000Z,44.92
2022-08-26T16:16:59.967Z,45.41
2022-08-26T16:20:03.973Z,45.72
2022-08-26T16:23:07.493Z,46.08
2022-08-26T16:26:15.155Z,45.91
2022-08-26T16:29:18.617Z,46.08
2022-08-26T16:32:21.526Z,46.40
2022-08-26T16:35:27.646Z,47.08
2022-08-26T16:38:30.781Z,47.40
2022-08-26T16:41:35.118Z,47.47
2022-08-26T16:44:45.115Z,47.66
2022-08-26T16:47:49.158Z,48.62
2022-08-26T16:50:54.468Z,48.88
2022-08-26T16:53:59.075Z,49.79
2022-08-26T16:57:02.710Z,50.43
2022-08-26T17:00:10.505Z,50.66
2022-08-26T17:03:13.624Z,51.27
2022-08-26T17:06:17.214Z,51.47
2022-08-26T17:09:20.846Z,51.92
2022-08-26T17:12:23.838Z,52.20
2022-08-26T17:15:26.983Z,52.33
2022-08-26T17:18:30.413Z,52.85
2022-08-26T17:21:35.474Z,53.36
2022-08-26T17:24:39.368Z,53.45
2022-08-26T17:27:42.827Z,53.51
2022-08-26T17:30:46.029Z,53.40
2022-08-26T17:33:53.673Z,53.45
2022-08-26T17:36:57.188Z,54.03
2022-08-26T17:40:00.397Z,53.86
2022-08-26T17:43:03.536Z,53.95
2022-08-26T17:46:08.859Z,54.16
2022-08-26T17:49:12.269Z,53.90
2022-08-26T17:52:15.324Z,53.78
2022-08-26T17:55:19.268Z,53.76
2022-08-26T17:58:23.747Z,53.96
2022-08-26T18:01:28.190Z,54.78
2022-08-26T18:04:31.498Z,55.09
2022-08-26T18:07:37.736Z,55.44
2022-08-26T18:10:47.911Z,54.87
2022-08-26T18:13:51.424Z,55.00
2022-08-26T18:16:54.308Z,55.52
2022-08-26T18:19:57.921Z,55.67
2022-08-26T18:23:00.955Z,55.82
2022-08-26T18:26:04.071Z,56.17
2022-08-26T18:29:08.120Z,55.89
2022-08-26T18:32:11.138Z,56.87
2022-08-26T18:35:14.507Z,56.87
2022-08-26T18:38:17.747Z,56.73
2022-08-26T18:41:24.340Z,56.82
2022-08-26T18:44:27.308Z,56.73
2022-08-26T18:47:32.032Z,56.74
2022-08-26T18:50:39.823Z,56.91
2022-08-26T18:53:43.055Z,56.99
2022-08-26T18:56:46.313Z,56.98
2022-08-26T18:59:49.402Z,57.19
2022-08-26T19:02:52.445Z,57.39
2022-08-26T19:05:59.204Z,57.95
2022-08-26T19:09:06.666Z,58.27
2022-08-26T19:12:11.960Z,58.22
2022-08-26T19:15:15.314Z,58.33
2022-08-26T19:18:19.556Z,58.10
2022-08-26T19:21:23.088Z,58.14
2022-08-26T19:24:28.305Z,58.22
2022-08-26T19:27:32.373Z,58.48
2022-08-26T19:30:43.860Z,58.68
2022-08-26T19:33:46.981Z,58.42
2022-08-26T19:36:53.171Z,58.25
2022-08-26T19:39:56.248Z,58.31
2022-08-26T19:42:59.375Z,58.74
2022-08-26T19:46:09.568Z,58.67
2022-08-26T19:49:12.568Z,58.90
2022-08-26T19:52:15.647Z,59.09
2022-08-26T19:55:20.819Z,59.17
2022-08-26T19:58:24.283Z,59.14
2022-08-26T20:01:27.438Z,59.51
2022-08-26T20:04:32.096Z,59.66
2022-08-26T20:07:35.216Z,59.68
2022-08-26T20:10:38.237Z,59.69
2022-08-26T20:13:46.791Z,59.66
2022-08-26T20:16:50.105Z,59.60
2022-08-26T20:20:14.755Z,59.60
2022-08-26T20:23:36.617Z,59.47
2022-08-26T20:26:41.635Z,59.63
2022-08-26T20:29:46.329Z,59.87
2022-08-26T20:32:51.330Z,59.73
2022-08-26T20:35:54.963Z,59.78
2022-08-26T20:38:58.801Z,59.85
2022-08-26T20:42:06.801Z,59.88
2022-08-26T20:45:24.237Z,60.27
2022-08-26T20:48:34.829Z,60.40
2022-08-26T20:51:38.567Z,60.37
2022-08-26T20:54:44.039Z,60.09
2022-08-26T20:57:48.774Z,59.74
2022-08-26T21:00:57.893Z,59.73
2022-08-26T21:04:07.102Z,59.68
2022-08-26T21:07:10.248Z,59.68
2022-08-26T21:10:15.817Z,59.79
2022-08-26T21:13:19.436Z,59.96
2022-08-26T21:16:22.646Z,59.95
2022-08-26T21:19:27.075Z,59.95
2022-08-26T21:22:30.067Z,59.99
2022-08-26T21:25:33.345Z,59.98
2022-08-26T21:28:38.605Z,59.99
2022-08-26T21:31:46.118Z,60.28
2022-08-26T21:34:50.081Z,60.25
2022-08-26T21:37:53.012Z,60.07
2022-08-26T21:41:01.555Z,59.85
2022-08-26T21:44:04.526Z,59.73
2022-08-26T21:47:07.508Z,59.60
2022-08-26T21:50:10.957Z,59.62
2022-08-26T21:53:15.556Z,59.73
2022-08-26T21:56:21.000Z,59.63
2022-08-26T21:59:24.696Z,59.83
2022-08-26T22:02:27.650Z,59.92
2022-08-26T22:05:30.602Z,60.01
2022-08-26T22:08:33.640Z,59.89
2022-08-26T22:11:36.862Z,60.01
2022-08-26T22:14:39.963Z,59.93
2022-08-26T22:17:42.926Z,59.73
2022-08-26T22:20:45.856Z,59.56
2022-08-26T22:23:48.875Z,59.24
2022-08-26T22:26:52.227Z,59.04
2022-08-26T22:29:55.164Z,58.91
2022-08-26T22:32:58.267Z,59.08
2022-08-26T22:36:01.230Z,59.27
2022-08-26T22:39:05.046Z,59.46
2022-08-26T22:42:08.031Z,59.37
2022-08-26T22:45:12.233Z,59.62
2022-08-26T22:48:20.025Z,59.57
2022-08-26T22:51:23.216Z,60.02
2022-08-26T22:54:26.179Z,60.01
2022-08-26T22:57:29.117Z,60.06
2022-08-26T23:00:32.632Z,60.12
2022-08-26T23:03:35.907Z,60.04
2022-08-26T23:06:41.385Z,59.73
2022-08-26T23:09:44.364Z,60.15
2022-08-26T23:12:47.310Z,60.19
2022-08-26T23:16:00.249Z,59.95
2022-08-26T23:19:04.678Z,59.82
2022-08-26T23:22:07.686Z,59.50
2022-08-26T23:25:11.057Z,59.16
2022-08-26T23:28:14.037Z,58.81
2022-08-26T23:31:17.049Z,58.45
2022-08-26T23:34:38.932Z,58.49
2022-08-26T23:37:44.886Z,58.22
2022-08-26T23:40:49.072Z,58.15
2022-08-26T23:43:52.244Z,57.88
2022-08-26T23:46:55.361Z,57.87
2022-08-26T23:49:58.507Z,57.85
2022-08-26T23:53:08.772Z,57.57
2022-08-26T23:56:16.131Z,57.57
2022-08-26T23:59:19.281Z,57.65
